KGVL/GVL METAR and TAF weather

Enter ICAO airport designator
Station Type Date Time Source
KGVL METAR 2021/07/26 11:53 UTC NOAA

KGVL 261153Z AUTO 32003KT 8SM CLR 25/22 A3006 RMK AO2 SLP161 T02500222 10256 20233 53011


Station Type Date Time Source
KGVL Decoded METAR 2021/07/26 11:53 UTC NOAA

GILMER MEMORIAL AIRPORT, GA, United States (KGVL) 34-16N 83-50W 386M
Jul 26, 2021 - 07:53 AM EDT / 2021.07.26 1153 UTC
Wind: from the NW (320 degrees) at 3 MPH (3 KT):0
Visibility: 8 mile(s):0
Sky conditions: clear
Temperature: 77.0 F (25.0 C)
Dew Point: 72.0 F (22.2 C)
Relative Humidity: 84%
Pressure (altimeter): 30.06 in. Hg (1017 hPa)
Pressure tendency: 0.03 inches (1.1 hPa) higher than three hours ago
ob: KGVL 261153Z AUTO 32003KT 8SM CLR 25/22 A3006 RMK AO2 SLP161 T02500222 10256 20233 53011
cycle: 12

Station Type Date Time Source
KGVL TAF UTC NOAA

Error!

Example: see airport list